createdAt,value
2018-11-11T00:00:26.792Z,8.05
2018-11-11T00:01:36.375Z,8.05
2018-11-11T00:02:46.235Z,8.03
2018-11-11T00:03:56.365Z,8.09
2018-11-11T00:05:06.229Z,8.13
2018-11-11T00:06:16.080Z,8.11
2018-11-11T00:07:26.210Z,8.18
2018-11-11T00:08:36.063Z,8.09
2018-11-11T00:09:45.910Z,8.17
2018-11-11T00:10:56.034Z,8.21
2018-11-11T00:12:06.157Z,8.18
2018-11-11T00:13:16.056Z,8.18
2018-11-11T00:14:26.193Z,8.13
2018-11-11T00:15:36.054Z,8.16
2018-11-11T00:16:46.183Z,8.17
2018-11-11T00:17:56.308Z,8.18
2018-11-11T00:19:06.444Z,8.05
2018-11-11T00:20:16.601Z,8.13
2018-11-11T00:21:26.469Z,8.2
2018-11-11T00:22:36.394Z,8.21
2018-11-11T00:23:46.526Z,8.11
2018-11-11T00:24:56.719Z,8.06
2018-11-11T00:26:06.575Z,8.09
2018-11-11T00:27:16.699Z,8.08
2018-11-11T00:28:26.681Z,8.11
2018-11-11T00:29:36.878Z,8.08
2018-11-11T00:30:47.015Z,8.08
2018-11-11T00:31:57.143Z,8.09
2018-11-11T00:33:06.997Z,8.05
2018-11-11T00:34:17.120Z,8.17
2018-11-11T00:35:27.244Z,8.16
2018-11-11T00:36:37.094Z,8.14
2018-11-11T00:37:46.955Z,8.23
2018-11-11T00:38:57.077Z,8.16
2018-11-11T00:40:06.943Z,8.09
2018-11-11T00:41:17.073Z,8.09
2018-11-11T00:42:27.205Z,8.09
2018-11-11T00:43:37.334Z,8.18
2018-11-11T00:44:46.636Z,8.17
2018-11-11T00:45:56.486Z,8.18
2018-11-11T00:47:06.336Z,8.17
2018-11-11T00:48:15.916Z,8.14
2018-11-11T00:49:26.037Z,8.09
2018-11-11T00:50:35.612Z,8.09
2018-11-11T00:51:44.637Z,8.03
2018-11-11T00:52:54.487Z,8.08
2018-11-11T00:54:04.067Z,8.03
2018-11-11T00:55:13.918Z,7.99
2018-11-11T00:56:24.044Z,7.93
2018-11-11T00:57:33.892Z,8.06
2018-11-11T00:58:43.744Z,8.06
2018-11-11T00:59:53.600Z,7.99
2018-11-11T01:01:03.732Z,8.06
2018-11-11T01:02:13.314Z,8.06
2018-11-11T01:03:23.172Z,8.03
2018-11-11T01:04:33.304Z,7.95
2018-11-11T01:05:43.211Z,8.06
2018-11-11T01:06:53.337Z,8.03
2018-11-11T01:08:03.193Z,8.02
2018-11-11T01:09:13.335Z,8.05
2018-11-11T01:10:23.461Z,8.09
2018-11-11T01:11:33.584Z,8.03
2018-11-11T01:12:43.447Z,8.06
2018-11-11T01:13:53.311Z,8.21
2018-11-11T01:15:02.888Z,8.2
2018-11-11T01:16:12.744Z,8.18
2018-11-11T01:17:22.945Z,8.24
2018-11-11T01:18:33.063Z,8.24
2018-11-11T01:19:42.366Z,8.18
2018-11-11T01:20:52.490Z,8.23
2018-11-11T01:22:02.613Z,8.2
2018-11-11T01:23:12.471Z,8.18
2018-11-11T01:24:22.609Z,8.21
2018-11-11T01:25:32.458Z,8.18
2018-11-11T01:26:42.319Z,8.18
2018-11-11T01:27:52.172Z,8.17
2018-11-11T01:29:02.034Z,8.24
2018-11-11T01:30:11.896Z,8.28
2018-11-11T01:31:22.026Z,8.2
2018-11-11T01:32:32.152Z,8.26
2018-11-11T01:33:41.732Z,8.24
2018-11-11T01:34:51.587Z,8.26
2018-11-11T01:36:01.720Z,8.27
2018-11-11T01:37:11.572Z,8.17
2018-11-11T01:38:21.705Z,8.2
2018-11-11T01:39:31.024Z,8.21
2018-11-11T01:40:40.599Z,8.16
2018-11-11T01:41:50.760Z,8.24
2018-11-11T01:43:00.895Z,8.23
2018-11-11T01:44:10.470Z,8.23
2018-11-11T01:45:20.320Z,8.23
2018-11-11T01:46:30.442Z,8.27
2018-11-11T01:47:40.567Z,8.23
2018-11-11T01:48:50.692Z,8.26
2018-11-11T01:50:00.831Z,8.21
2018-11-11T01:51:10.679Z,8.24
2018-11-11T01:52:20.808Z,8.24
2018-11-11T01:53:30.936Z,8.2
2018-11-11T01:54:41.066Z,8.2
2018-11-11T01:55:50.640Z,8.24
2018-11-11T01:57:00.217Z,8.23
2018-11-11T01:58:10.066Z,8.28
2018-11-11T01:59:19.642Z,8.28
2018-11-11T02:00:29.769Z,8.26
2018-11-11T02:01:39.893Z,8.24
2018-11-11T02:02:49.741Z,8.24
2018-11-11T02:03:59.597Z,8.27
2018-11-11T02:05:09.450Z,8.21
2018-11-11T02:06:19.028Z,8.24
2018-11-11T02:07:29.151Z,8.2
2018-11-11T02:08:38.999Z,8.32
2018-11-11T02:09:49.305Z,8.23
2018-11-11T02:10:59.927Z,8.24
2018-11-11T02:12:09.792Z,8.24
2018-11-11T02:13:19.918Z,8.18
2018-11-11T02:14:30.042Z,8.23
2018-11-11T02:15:39.911Z,8.28
2018-11-11T02:16:50.043Z,8.23
2018-11-11T02:18:00.858Z,8.27
2018-11-11T02:19:10.757Z,8.24
2018-11-11T02:20:20.610Z,8.24
2018-11-11T02:21:30.579Z,8.24
2018-11-11T02:22:40.284Z,8.21
2018-11-11T02:23:50.132Z,8.31
2018-11-11T02:24:59.995Z,8.24
2018-11-11T02:26:10.131Z,8.23
2018-11-11T02:27:19.987Z,8.21
2018-11-11T02:28:29.845Z,8.23
2018-11-11T02:29:39.701Z,8.24
2018-11-11T02:30:49.837Z,8.34
2018-11-11T02:31:59.964Z,8.2
2018-11-11T02:33:09.547Z,8.28
2018-11-11T02:34:19.400Z,8.23
2018-11-11T02:35:29.549Z,8.27
2018-11-11T02:36:39.397Z,8.27
2018-11-11T02:37:49.852Z,8.24
2018-11-11T02:39:00.017Z,8.28
2018-11-11T02:40:09.882Z,8.27
2018-11-11T02:41:20.063Z,8.31
2018-11-11T02:42:30.193Z,8.24
2018-11-11T02:43:40.051Z,8.26
2018-11-11T02:44:49.919Z,8.24
2018-11-11T02:45:59.776Z,8.27
2018-11-11T02:47:09.362Z,8.31
2018-11-11T02:48:19.495Z,8.26
2018-11-11T02:49:29.358Z,8.26
2018-11-11T02:50:39.222Z,8.34
2018-11-11T02:51:49.080Z,8.31
2018-11-11T02:52:59.225Z,8.27
2018-11-11T02:54:08.528Z,8.27
2018-11-11T02:55:18.441Z,8.28
2018-11-11T02:56:28.297Z,8.27
2018-11-11T02:57:38.152Z,8.34
2018-11-11T02:58:47.738Z,8.31
2018-11-11T02:59:57.865Z,8.26
2018-11-11T03:01:07.723Z,8.27
2018-11-11T03:02:17.642Z,8.28
2018-11-11T03:03:27.495Z,8.34
2018-11-11T03:04:38.095Z,8.26
2018-11-11T03:05:47.974Z,8.32
2018-11-11T03:06:57.833Z,8.27
2018-11-11T03:08:07.690Z,8.23
2018-11-11T03:09:17.553Z,8.21
2018-11-11T03:10:27.429Z,8.31
2018-11-11T03:11:37.574Z,8.23
2018-11-11T03:12:47.704Z,8.23
2018-11-11T03:13:57.884Z,8.2
2018-11-11T03:15:07.749Z,8.27
2018-11-11T03:16:17.610Z,8.27
2018-11-11T03:17:27.505Z,8.23
2018-11-11T03:18:37.353Z,8.24
2018-11-11T03:19:47.474Z,8.27
2018-11-11T03:20:57.336Z,8.27
2018-11-11T03:22:07.477Z,8.26
2018-11-11T03:23:17.625Z,8.23
2018-11-11T03:24:27.766Z,8.18
2018-11-11T03:25:37.644Z,8.21
2018-11-11T03:26:47.769Z,8.2
2018-11-11T03:27:57.353Z,8.24
2018-11-11T03:29:07.203Z,8.18
2018-11-11T03:30:17.388Z,8.18
2018-11-11T03:31:26.977Z,8.23
2018-11-11T03:32:37.125Z,8.2
2018-11-11T03:33:47.276Z,8.21
2018-11-11T03:34:57.408Z,8.23
2018-11-11T03:36:07.262Z,8.23
2018-11-11T03:37:17.397Z,8.23
2018-11-11T03:38:27.523Z,8.32
2018-11-11T03:39:37.655Z,8.23
2018-11-11T03:40:47.505Z,8.24
2018-11-11T03:41:57.638Z,8.26
2018-11-11T03:43:06.947Z,8.18
2018-11-11T03:44:16.798Z,8.21
2018-11-11T03:45:26.928Z,8.26
2018-11-11T03:46:36.784Z,8.23
2018-11-11T03:47:46.635Z,8.2
2018-11-11T03:48:56.509Z,8.26
2018-11-11T03:50:06.362Z,8.21
2018-11-11T03:51:16.497Z,8.31
2018-11-11T03:52:26.625Z,8.2
2018-11-11T03:53:36.480Z,8.16
2018-11-11T03:54:46.336Z,8.18
2018-11-11T03:55:56.189Z,8.23
2018-11-11T03:57:06.320Z,8.24
2018-11-11T03:58:15.904Z,8.23
2018-11-11T03:59:25.756Z,8.23
2018-11-11T04:00:34.792Z,8.23
2018-11-11T04:01:44.674Z,8.31
2018-11-11T04:02:54.806Z,8.28
2018-11-11T04:04:04.386Z,8.31
2018-11-11T04:05:14.268Z,8.23
2018-11-11T04:06:24.128Z,8.32
2018-11-11T04:07:34.259Z,8.28
2018-11-11T04:08:44.117Z,8.18
2018-11-11T04:09:53.697Z,8.32
2018-11-11T04:11:03.558Z,8.21
2018-11-11T04:12:13.419Z,8.27
2018-11-11T04:13:22.727Z,8.21
2018-11-11T04:14:32.869Z,8.21
2018-11-11T04:15:43.002Z,8.2
2018-11-11T04:16:52.850Z,8.21
2018-11-11T04:18:02.440Z,8.21
2018-11-11T04:19:12.574Z,8.23
2018-11-11T04:20:22.428Z,8.18
2018-11-11T04:21:32.564Z,8.28
2018-11-11T04:22:42.148Z,8.23
2018-11-11T04:23:51.999Z,8.2
2018-11-11T04:25:01.909Z,8.18
2018-11-11T04:26:11.216Z,8.2
2018-11-11T04:27:21.346Z,8.18
2018-11-11T04:28:31.491Z,8.24
2018-11-11T04:29:41.670Z,8.24
2018-11-11T04:30:51.811Z,8.32
2018-11-11T04:32:01.940Z,8.17
2018-11-11T04:33:11.797Z,8.18
2018-11-11T04:34:21.653Z,8.21
2018-11-11T04:35:31.513Z,8.21
2018-11-11T04:36:41.658Z,8.27
2018-11-11T04:37:51.524Z,8.26
2018-11-11T04:39:01.214Z,8.27
2018-11-11T04:40:11.562Z,8.24
2018-11-11T04:41:21.439Z,8.24
2018-11-11T04:42:30.751Z,8.24
2018-11-11T04:43:40.876Z,8.26
2018-11-11T04:44:50.736Z,8.34
2018-11-11T04:46:00.598Z,8.18
2018-11-11T04:47:10.511Z,8.27
2018-11-11T04:48:20.365Z,8.24
2018-11-11T04:49:30.235Z,8.23
2018-11-11T04:50:40.370Z,8.23
2018-11-11T04:51:50.225Z,8.24
2018-11-11T04:53:00.358Z,8.26
2018-11-11T04:54:10.488Z,8.28
2018-11-11T04:55:20.668Z,8.26
2018-11-11T04:56:30.248Z,8.28
2018-11-11T04:57:40.385Z,8.31
2018-11-11T04:58:50.535Z,8.27
2018-11-11T05:00:00.672Z,8.27
2018-11-11T05:01:10.558Z,8.28
2018-11-11T05:02:20.806Z,8.28
2018-11-11T05:03:30.658Z,8.28
2018-11-11T05:04:41.138Z,8.32
2018-11-11T05:05:51.699Z,8.32
2018-11-11T05:07:01.285Z,8.38
2018-11-11T05:08:11.427Z,8.34
2018-11-11T05:09:20.731Z,8.38
2018-11-11T05:10:30.634Z,8.36
2018-11-11T05:11:40.765Z,8.26
2018-11-11T05:12:50.624Z,8.32
2018-11-11T05:14:00.754Z,8.39
2018-11-11T05:15:10.345Z,8.36
2018-11-11T05:16:20.504Z,8.34
2018-11-11T05:17:30.356Z,8.35
2018-11-11T05:18:40.481Z,8.32
2018-11-11T05:19:50.332Z,8.38
2018-11-11T05:21:00.194Z,8.35
2018-11-11T05:22:10.054Z,8.28
2018-11-11T05:23:19.924Z,8.34
2018-11-11T05:24:29.504Z,8.34
2018-11-11T05:25:39.095Z,8.35
2018-11-11T05:26:49.227Z,8.35
2018-11-11T05:27:59.364Z,8.39
2018-11-11T05:29:09.215Z,8.27
2018-11-11T05:30:19.363Z,8.31
2018-11-11T05:31:29.215Z,8.26
2018-11-11T05:32:38.513Z,8.28
2018-11-11T05:33:53.013Z,8.26
2018-11-11T05:35:03.138Z,8.34
2018-11-11T05:36:12.725Z,8.35
2018-11-11T05:37:22.590Z,8.31
2018-11-11T05:38:32.441Z,8.31
2018-11-11T05:39:42.019Z,8.38
2018-11-11T05:40:52.165Z,8.38
2018-11-11T05:42:02.035Z,8.44
2018-11-11T05:43:12.173Z,8.39
2018-11-11T05:44:22.994Z,8.34
2018-11-11T05:45:32.847Z,8.28
2018-11-11T05:46:42.430Z,8.32
2018-11-11T05:47:52.564Z,8.32
2018-11-11T05:49:02.426Z,8.35
2018-11-11T05:50:12.285Z,8.38
2018-11-11T05:51:22.137Z,8.39
2018-11-11T05:52:31.717Z,8.31
2018-11-11T05:53:41.564Z,8.35
2018-11-11T05:54:51.429Z,8.31
2018-11-11T05:56:01.004Z,8.28
2018-11-11T05:57:10.880Z,8.32
2018-11-11T05:58:21.015Z,8.32
2018-11-11T05:59:30.866Z,8.38
2018-11-11T06:00:40.727Z,8.35
2018-11-11T06:01:50.302Z,8.39
2018-11-11T06:03:00.158Z,8.44
2018-11-11T06:04:09.739Z,8.34
2018-11-11T06:05:19.871Z,8.34
2018-11-11T06:06:30.002Z,8.38
2018-11-11T06:07:39.854Z,8.35
2018-11-11T06:08:49.439Z,8.32
2018-11-11T06:09:59.287Z,8.35
2018-11-11T06:11:09.430Z,8.35
2018-11-11T06:12:19.285Z,8.39
2018-11-11T06:13:29.422Z,8.39
2018-11-11T06:14:39.555Z,8.35
2018-11-11T06:15:49.744Z,8.27
2018-11-11T06:16:59.868Z,8.28
2018-11-11T06:18:09.449Z,8.32
2018-11-11T06:19:19.028Z,8.24
2018-11-11T06:20:29.151Z,8.23
2018-11-11T06:21:39.276Z,8.35
2018-11-11T06:22:49.407Z,8.23
2018-11-11T06:23:59.262Z,8.26
2018-11-11T06:25:09.123Z,8.23
2018-11-11T06:26:19.265Z,8.28
2018-11-11T06:27:29.603Z,8.23
2018-11-11T06:28:40.024Z,8.26
2018-11-11T06:29:49.884Z,8.24
2018-11-11T06:31:00.014Z,8.24
2018-11-11T06:32:09.642Z,8.23
2018-11-11T06:33:19.521Z,8.21
2018-11-11T06:34:29.650Z,8.21
2018-11-11T06:35:39.229Z,8.26
2018-11-11T06:36:49.362Z,8.23
2018-11-11T06:37:59.222Z,8.24
2018-11-11T06:39:09.072Z,8.21
2018-11-11T06:40:19.203Z,8.26
2018-11-11T06:41:48.345Z,8.23
2018-11-11T06:42:58.619Z,8.27
2018-11-11T06:44:08.798Z,8.26
2018-11-11T06:45:18.813Z,8.23
2018-11-11T06:46:28.668Z,8.28
2018-11-11T06:47:38.519Z,8.27
2018-11-11T06:48:48.643Z,8.28
2018-11-11T06:49:58.492Z,8.31
2018-11-11T06:51:08.070Z,8.28
2018-11-11T06:52:18.196Z,8.26
2018-11-11T06:53:28.054Z,8.28
2018-11-11T06:54:38.183Z,8.21
2018-11-11T06:55:48.035Z,8.24
2018-11-11T06:56:58.172Z,8.31
2018-11-11T06:58:08.513Z,8.28
2018-11-11T06:59:18.485Z,8.21
2018-11-11T07:00:28.614Z,8.28
2018-11-11T07:01:38.749Z,8.28
2018-11-11T07:02:48.602Z,8.26
2018-11-11T07:03:58.728Z,8.28
2018-11-11T07:05:08.594Z,8.32
2018-11-11T07:06:18.725Z,8.27
2018-11-11T07:07:29.059Z,8.21
2018-11-11T07:08:38.753Z,8.28
2018-11-11T07:09:48.885Z,8.38
2018-11-11T07:10:59.017Z,8.34
2018-11-11T07:12:09.192Z,8.36
2018-11-11T07:13:19.069Z,8.38
2018-11-11T07:14:28.931Z,8.41
2018-11-11T07:15:39.054Z,8.35
2018-11-11T07:16:48.631Z,8.35
2018-11-11T07:17:58.767Z,8.35
2018-11-11T07:19:08.621Z,8.32
2018-11-11T07:20:18.469Z,8.38
2018-11-11T07:21:28.605Z,8.36
2018-11-11T07:22:38.742Z,8.38
2018-11-11T07:23:48.904Z,8.39
2018-11-11T07:24:59.156Z,8.32
2018-11-11T07:26:08.465Z,8.36
2018-11-11T07:27:18.588Z,8.42
2018-11-11T07:28:27.890Z,8.39
2018-11-11T07:29:38.017Z,8.39
2018-11-11T07:30:47.597Z,8.36
2018-11-11T07:31:57.730Z,8.36
2018-11-11T07:33:07.031Z,8.39
2018-11-11T07:34:16.887Z,8.41
2018-11-11T07:35:27.030Z,8.38
2018-11-11T07:36:37.165Z,8.38
2018-11-11T07:37:47.302Z,8.39
2018-11-11T07:38:57.437Z,8.38
2018-11-11T07:40:07.012Z,8.42
2018-11-11T07:41:17.145Z,8.38
2018-11-11T07:42:27.315Z,8.44
2018-11-11T07:43:37.614Z,8.38
2018-11-11T07:44:47.469Z,8.36
2018-11-11T07:45:57.324Z,8.39
2018-11-11T07:47:06.676Z,8.44
2018-11-11T07:48:16.803Z,8.41
2018-11-11T07:49:26.656Z,8.38
2018-11-11T07:50:36.801Z,8.38
2018-11-11T07:51:46.980Z,8.44
2018-11-11T07:52:57.208Z,8.42
2018-11-11T07:54:07.062Z,8.53
2018-11-11T07:55:16.982Z,8.49
2018-11-11T07:56:26.983Z,8.5
2018-11-11T07:57:37.120Z,8.42
2018-11-11T07:58:46.975Z,8.44
2018-11-11T07:59:56.559Z,8.45
2018-11-11T08:01:06.719Z,8.49
2018-11-11T08:02:16.861Z,8.5
2018-11-11T08:03:27.346Z,8.44
2018-11-11T08:04:37.247Z,8.44
2018-11-11T08:05:47.101Z,8.42
2018-11-11T08:06:57.274Z,8.46
2018-11-11T08:08:06.853Z,8.45
2018-11-11T08:09:16.706Z,8.46
2018-11-11T08:10:26.838Z,8.5
2018-11-11T08:11:36.694Z,8.49
2018-11-11T08:12:46.554Z,8.52
2018-11-11T08:13:56.686Z,8.44
2018-11-11T08:15:06.267Z,8.49
2018-11-11T08:16:16.408Z,8.53
2018-11-11T08:17:26.254Z,8.45
2018-11-11T08:18:36.379Z,8.54
2018-11-11T08:19:45.960Z,8.57
2018-11-11T08:20:56.083Z,8.57
2018-11-11T08:22:06.225Z,8.5
2018-11-11T08:23:16.359Z,8.53
2018-11-11T08:24:26.205Z,8.54
2018-11-11T08:25:36.097Z,8.52
2018-11-11T08:26:46.355Z,8.6
2018-11-11T08:27:56.487Z,8.54
2018-11-11T08:29:06.063Z,8.6
2018-11-11T08:30:16.196Z,8.56
2018-11-11T08:31:26.322Z,8.6
2018-11-11T08:32:36.446Z,8.56
2018-11-11T08:33:46.303Z,8.66
2018-11-11T08:34:56.156Z,8.57
2018-11-11T08:36:06.008Z,8.56
2018-11-11T08:37:15.863Z,8.57
2018-11-11T08:38:26.039Z,8.56
2018-11-11T08:39:35.890Z,8.6
2018-11-11T08:40:46.245Z,8.56
2018-11-11T08:41:56.377Z,8.59
2018-11-11T08:43:06.522Z,8.61
2018-11-11T08:44:16.658Z,8.52
2018-11-11T08:45:26.794Z,8.56
2018-11-11T08:46:36.647Z,8.44
2018-11-11T08:47:46.508Z,8.56
2018-11-11T08:48:56.360Z,8.54
2018-11-11T08:50:06.216Z,8.52
2018-11-11T08:51:16.343Z,8.54
2018-11-11T08:52:26.472Z,8.57
2018-11-11T08:53:36.326Z,8.57
2018-11-11T08:54:46.451Z,8.61
2018-11-11T08:55:56.299Z,8.6
2018-11-11T08:57:06.151Z,8.6
2018-11-11T08:58:16.596Z,8.54
2018-11-11T08:59:26.450Z,8.59
2018-11-11T09:00:36.038Z,8.49
2018-11-11T09:01:45.911Z,8.61
2018-11-11T09:02:55.768Z,8.6
2018-11-11T09:04:05.895Z,8.54
2018-11-11T09:05:16.026Z,8.57
2018-11-11T09:06:26.169Z,8.59
2018-11-11T09:07:36.301Z,8.59
2018-11-11T09:08:46.160Z,8.56
2018-11-11T09:09:56.020Z,8.57
2018-11-11T09:11:06.151Z,8.53
2018-11-11T09:12:16.298Z,8.53
2018-11-11T09:13:26.434Z,8.56
2018-11-11T09:14:36.011Z,8.59
2018-11-11T09:15:46.139Z,8.6
2018-11-11T09:16:55.992Z,8.6
2018-11-11T09:18:06.121Z,8.54
2018-11-11T09:19:16.245Z,8.52
2018-11-11T09:20:26.374Z,8.54
2018-11-11T09:21:36.845Z,8.6
2018-11-11T09:22:46.781Z,8.57
2018-11-11T09:23:57.180Z,8.54
2018-11-11T09:25:07.034Z,8.56
2018-11-11T09:26:16.608Z,8.56
2018-11-11T09:27:26.771Z,8.61
2018-11-11T09:28:36.632Z,8.56
2018-11-11T09:29:47.210Z,8.6
2018-11-11T09:30:57.362Z,8.59
2018-11-11T09:32:07.219Z,8.56
2018-11-11T09:33:17.079Z,8.54
2018-11-11T09:34:26.930Z,8.66
2018-11-11T09:35:37.065Z,8.68
2018-11-11T09:36:46.652Z,8.57
2018-11-11T09:37:56.780Z,8.53
2018-11-11T09:39:06.347Z,8.71
2018-11-11T09:40:16.476Z,8.68
2018-11-11T09:41:26.614Z,8.71
2018-11-11T09:42:36.662Z,8.72
2018-11-11T09:43:47.238Z,8.64
2018-11-11T09:44:57.370Z,8.6
2018-11-11T09:46:07.229Z,8.68
2018-11-11T09:47:17.361Z,8.69
2018-11-11T09:48:27.212Z,8.69
2018-11-11T09:49:36.788Z,8.75
2018-11-11T09:50:46.917Z,8.71
2018-11-11T09:51:57.048Z,8.69
2018-11-11T09:53:06.902Z,8.69
2018-11-11T09:54:17.001Z,8.71
2018-11-11T09:55:26.884Z,8.69
2018-11-11T09:56:36.739Z,8.69
2018-11-11T09:57:46.889Z,8.72
2018-11-11T09:58:57.022Z,8.72
2018-11-11T10:00:06.610Z,8.69
2018-11-11T10:01:16.470Z,8.71
2018-11-11T10:02:26.608Z,8.75
2018-11-11T10:03:36.464Z,8.75
2018-11-11T10:04:46.437Z,8.84
2018-11-11T10:05:56.673Z,8.78
2018-11-11T10:07:07.266Z,8.74
2018-11-11T10:08:17.664Z,8.77
2018-11-11T10:09:27.261Z,8.77
2018-11-11T10:10:37.395Z,8.75
2018-11-11T10:11:47.524Z,8.77
2018-11-11T10:12:57.905Z,8.82
2018-11-11T10:14:07.487Z,8.86
2018-11-11T10:15:17.342Z,8.87
2018-11-11T10:16:27.203Z,8.89
2018-11-11T10:17:36.781Z,8.92
2018-11-11T10:18:46.917Z,8.84
2018-11-11T10:19:57.156Z,8.86
2018-11-11T10:21:06.826Z,8.9
2018-11-11T10:22:16.966Z,8.9
2018-11-11T10:23:27.100Z,8.93
2018-11-11T10:24:37.233Z,8.86
2018-11-11T10:25:47.087Z,8.89
2018-11-11T10:26:56.938Z,8.89
2018-11-11T10:28:06.535Z,8.87
2018-11-11T10:29:16.533Z,8.92
2018-11-11T10:30:27.032Z,8.92
2018-11-11T10:31:36.892Z,8.93
2018-11-11T10:32:46.745Z,8.89
2018-11-11T10:33:56.597Z,8.9
2018-11-11T10:35:06.458Z,8.87
2018-11-11T10:36:16.592Z,8.84
2018-11-11T10:37:27.044Z,8.92
2018-11-11T10:38:37.093Z,8.95
2018-11-11T10:39:47.218Z,8.9
2018-11-11T10:40:57.348Z,8.89
2018-11-11T10:42:07.207Z,8.89
2018-11-11T10:43:17.357Z,8.9
2018-11-11T10:44:27.528Z,8.89
2018-11-11T10:45:37.487Z,8.95
2018-11-11T10:46:47.623Z,8.89
2018-11-11T10:47:57.902Z,8.86
2018-11-11T10:49:07.760Z,8.9
2018-11-11T10:50:17.900Z,8.9
2018-11-11T10:51:27.532Z,8.9
2018-11-11T10:52:37.658Z,8.82
2018-11-11T10:53:47.838Z,8.89
2018-11-11T10:54:57.689Z,8.87
2018-11-11T10:56:07.262Z,8.95
2018-11-11T10:57:17.116Z,8.92
2018-11-11T10:58:26.968Z,8.92
2018-11-11T10:59:36.872Z,8.92
2018-11-11T11:00:46.178Z,8.92
2018-11-11T11:01:56.307Z,8.9
2018-11-11T11:03:06.166Z,8.87
2018-11-11T11:04:15.760Z,8.87
2018-11-11T11:05:25.939Z,8.78
2018-11-11T11:06:35.795Z,8.89
2018-11-11T11:07:45.933Z,8.84
2018-11-11T11:08:56.058Z,8.82
2018-11-11T11:10:06.195Z,8.86
2018-11-11T11:11:16.384Z,8.89
2018-11-11T11:12:26.246Z,8.84
2018-11-11T11:13:36.361Z,8.84
2018-11-11T11:14:46.464Z,8.84
2018-11-11T11:15:56.589Z,8.87
2018-11-11T11:17:05.940Z,8.82
2018-11-11T11:18:16.071Z,8.84
2018-11-11T11:19:25.924Z,8.81
2018-11-11T11:20:35.495Z,8.82
2018-11-11T11:21:45.621Z,8.79
2018-11-11T11:22:55.068Z,8.82
2018-11-11T11:24:05.454Z,8.77
2018-11-11T11:25:15.596Z,8.81
2018-11-11T11:26:25.725Z,8.74
2018-11-11T11:27:35.855Z,8.78
2018-11-11T11:28:45.754Z,8.75
2018-11-11T11:29:55.610Z,8.84
2018-11-11T11:31:05.740Z,8.75
2018-11-11T11:32:15.397Z,8.77
2018-11-11T11:33:25.081Z,8.78
2018-11-11T11:34:34.757Z,8.75
2018-11-11T11:35:45.271Z,8.78
2018-11-11T11:36:55.761Z,8.75
2018-11-11T11:38:06.052Z,8.74
2018-11-11T11:39:16.019Z,8.75
2018-11-11T11:40:26.192Z,8.72
2018-11-11T11:41:36.592Z,8.71
2018-11-11T11:42:46.182Z,8.69
2018-11-11T11:43:55.907Z,8.79
2018-11-11T11:45:06.176Z,8.66
2018-11-11T11:46:15.806Z,8.71
2018-11-11T11:47:26.253Z,8.72
2018-11-11T11:48:36.021Z,8.64
2018-11-11T11:49:45.631Z,8.77
2018-11-11T11:50:55.997Z,8.68
2018-11-11T11:52:05.951Z,8.75
2018-11-11T11:53:16.206Z,8.72
2018-11-11T11:54:26.340Z,8.66
2018-11-11T11:55:36.466Z,8.71
2018-11-11T11:56:46.598Z,8.74
2018-11-11T11:57:56.911Z,8.81
2018-11-11T11:59:07.267Z,8.74
2018-11-11T12:00:17.126Z,8.77
2018-11-11T12:01:26.977Z,8.72
2018-11-11T12:02:36.632Z,8.75
2018-11-11T12:03:47.016Z,8.75
2018-11-11T12:04:57.147Z,8.75
2018-11-11T12:06:07.010Z,8.74
2018-11-11T12:07:17.140Z,8.82
2018-11-11T12:08:26.608Z,8.78
2018-11-11T12:09:36.857Z,8.81
2018-11-11T12:10:46.985Z,8.79
2018-11-11T12:11:56.844Z,8.78
2018-11-11T12:13:06.707Z,8.77
2018-11-11T12:14:16.281Z,8.82
2018-11-11T12:15:26.242Z,8.75
2018-11-11T12:16:35.871Z,8.9
2018-11-11T12:17:46.030Z,8.81
2018-11-11T12:18:55.334Z,8.87
2018-11-11T12:20:05.190Z,8.79
2018-11-11T12:21:15.371Z,8.79
2018-11-11T12:22:25.225Z,8.82
2018-11-11T12:23:34.804Z,8.89
2018-11-11T12:24:44.118Z,8.89
2018-11-11T12:25:53.983Z,8.9
2018-11-11T12:27:03.887Z,8.84
2018-11-11T12:28:13.746Z,8.87
2018-11-11T12:29:23.607Z,8.87
2018-11-11T12:30:33.231Z,8.81
2018-11-11T12:31:43.155Z,8.9
2018-11-11T12:32:52.791Z,8.86
2018-11-11T12:34:02.920Z,8.93
2018-11-11T12:35:12.754Z,8.93
2018-11-11T12:36:22.947Z,8.87
2018-11-11T12:37:33.074Z,8.89
2018-11-11T12:38:43.254Z,8.9
2018-11-11T12:39:53.971Z,8.96
2018-11-11T12:41:04.336Z,8.99
2018-11-11T12:42:14.472Z,9.02
2018-11-11T12:43:24.776Z,9.05
2018-11-11T12:44:34.715Z,8.95
2018-11-11T12:45:45.049Z,8.99
2018-11-11T12:46:55.199Z,8.95
2018-11-11T12:48:05.562Z,8.97
2018-11-11T12:49:15.965Z,9
2018-11-11T12:50:26.717Z,9.03
2018-11-11T12:51:36.795Z,9.03
2018-11-11T12:52:46.923Z,8.96
2018-11-11T12:53:56.831Z,9.02
2018-11-11T12:55:06.448Z,9.02
2018-11-11T12:56:16.794Z,8.97
2018-11-11T12:57:26.651Z,8.97
2018-11-11T12:58:36.511Z,8.96
2018-11-11T12:59:46.365Z,8.99
2018-11-11T13:00:56.722Z,8.99
2018-11-11T13:02:06.687Z,8.99
2018-11-11T13:03:16.535Z,9
2018-11-11T13:04:26.386Z,8.95
2018-11-11T13:05:36.342Z,9
2018-11-11T13:06:46.196Z,8.92
2018-11-11T13:07:56.712Z,8.9
2018-11-11T13:09:06.644Z,8.86
2018-11-11T13:10:16.221Z,8.92
2018-11-11T13:11:26.245Z,8.93
2018-11-11T13:12:36.349Z,8.96
2018-11-11T13:13:46.290Z,9.02
2018-11-11T13:14:56.490Z,8.96
2018-11-11T13:16:06.072Z,8.9
2018-11-11T13:17:15.648Z,8.86
2018-11-11T13:18:25.503Z,8.99
2018-11-11T13:19:35.458Z,8.97
2018-11-11T13:20:45.041Z,8.93
2018-11-11T13:21:55.285Z,8.87
2018-11-11T13:23:05.992Z,9.02
2018-11-11T13:24:15.568Z,8.97
2018-11-11T13:25:25.470Z,8.93
2018-11-11T13:26:35.042Z,9
2018-11-11T13:27:44.896Z,8.97
2018-11-11T13:28:54.746Z,8.96
2018-11-11T13:30:04.604Z,8.95
2018-11-11T13:31:14.231Z,8.97
2018-11-11T13:32:24.092Z,8.99
2018-11-11T13:33:34.217Z,8.96
2018-11-11T13:34:44.070Z,8.97
2018-11-11T13:35:54.199Z,8.95
2018-11-11T13:37:04.332Z,8.97
2018-11-11T13:38:14.600Z,8.95
2018-11-11T13:39:24.990Z,8.96
2018-11-11T13:40:34.850Z,8.79
2018-11-11T13:41:44.710Z,8.99
2018-11-11T13:42:54.894Z,8.95
2018-11-11T13:44:05.039Z,8.96
2018-11-11T13:45:15.170Z,8.96
2018-11-11T13:46:25.700Z,8.97
2018-11-11T13:47:36.253Z,8.93
2018-11-11T13:48:46.161Z,8.89
2018-11-11T13:49:55.741Z,8.82
2018-11-11T13:51:05.887Z,8.92
2018-11-11T13:52:16.055Z,8.84
2018-11-11T13:53:26.260Z,8.93
2018-11-11T13:54:36.166Z,8.89
2018-11-11T13:55:46.186Z,8.95
2018-11-11T13:56:56.340Z,8.82
2018-11-11T13:58:06.199Z,8.92
2018-11-11T13:59:16.050Z,8.9
2018-11-11T14:00:26.188Z,8.9
2018-11-11T14:01:36.689Z,8.87
2018-11-11T14:02:46.888Z,8.86
2018-11-11T14:03:57.024Z,8.9
2018-11-11T14:05:06.884Z,8.82
2018-11-11T14:06:16.238Z,8.78
2018-11-11T14:07:26.093Z,8.75
2018-11-11T14:08:36.223Z,8.81
2018-11-11T14:09:45.797Z,8.77
2018-11-11T14:10:56.164Z,8.82
2018-11-11T14:12:06.456Z,8.77
2018-11-11T14:13:16.034Z,8.75
2018-11-11T14:14:26.158Z,8.84
2018-11-11T14:15:36.030Z,8.74
2018-11-11T14:16:45.885Z,8.75
2018-11-11T14:17:55.682Z,8.84
2018-11-11T14:19:06.604Z,8.75
2018-11-11T14:20:18.133Z,8.72
2018-11-11T14:21:28.362Z,8.79
2018-11-11T14:22:38.500Z,8.72
2018-11-11T14:23:48.824Z,8.74
2018-11-11T14:24:59.464Z,8.84
2018-11-11T14:26:09.155Z,8.78
2018-11-11T14:27:18.837Z,8.74
2018-11-11T14:28:28.686Z,8.81
2018-11-11T14:29:38.876Z,8.81
2018-11-11T14:30:48.734Z,8.74
2018-11-11T14:31:58.627Z,8.75
2018-11-11T14:33:07.978Z,8.77
2018-11-11T14:34:17.833Z,8.75
2018-11-11T14:35:27.804Z,8.79
2018-11-11T14:36:37.661Z,8.74
2018-11-11T14:37:47.790Z,8.74
2018-11-11T14:38:57.917Z,8.74
2018-11-11T14:40:07.494Z,8.72
2018-11-11T14:41:17.175Z,8.77
2018-11-11T14:42:27.305Z,8.75
2018-11-11T14:43:37.166Z,8.72
2018-11-11T14:44:46.744Z,8.84
2018-11-11T14:45:56.755Z,8.74
2018-11-11T14:47:06.814Z,8.72
2018-11-11T14:48:16.673Z,8.78
2018-11-11T14:49:25.985Z,8.72
2018-11-11T14:50:35.843Z,8.69
2018-11-11T14:51:46.179Z,8.74
2018-11-11T14:52:56.405Z,8.78
2018-11-11T14:54:06.811Z,8.71
2018-11-11T14:55:17.023Z,8.79
2018-11-11T14:56:27.434Z,8.86
2018-11-11T14:57:37.287Z,8.81
2018-11-11T14:58:47.029Z,8.86
2018-11-11T14:59:57.086Z,8.89
2018-11-11T15:01:06.948Z,8.86
2018-11-11T15:02:17.411Z,8.84
2018-11-11T15:03:27.845Z,8.89
2018-11-11T15:04:38.021Z,8.87
2018-11-11T15:05:47.872Z,8.9
2018-11-11T15:06:58.002Z,8.9
2018-11-11T15:08:08.498Z,8.87
2018-11-11T15:09:18.850Z,8.84
2018-11-11T15:10:29.027Z,8.84
2018-11-11T15:11:39.162Z,8.95
2018-11-11T15:12:48.759Z,8.81
2018-11-11T15:13:58.372Z,8.79
2018-11-11T15:15:08.234Z,8.79
2018-11-11T15:16:18.467Z,8.77
2018-11-11T15:17:28.599Z,8.75
2018-11-11T15:18:38.457Z,8.78
2018-11-11T15:19:48.578Z,8.69
2018-11-11T15:20:59.241Z,8.74
2018-11-11T15:22:09.399Z,8.72
2018-11-11T15:23:19.528Z,8.75
2018-11-11T15:24:29.659Z,8.75
2018-11-11T15:25:39.793Z,8.79
2018-11-11T15:26:49.372Z,8.77
2018-11-11T15:27:59.549Z,8.75
2018-11-11T15:29:09.685Z,8.74
2018-11-11T15:30:19.370Z,8.66
2018-11-11T15:31:29.206Z,8.74
2018-11-11T15:32:39.070Z,8.81
2018-11-11T15:33:49.213Z,8.66